Time;durP1;ratioP1;P1;durP2;ratioP2;P2;SDS_P1;SDS_P2;PMS_P1;PMS_P2;Temp;Humidity;BMP_temperature;BMP_pressure;BME280_temperature;BME280_humidity;BME280_pressure;Samples;Min_cycle;Max_cycle;Signal;HPM_P1;HPM_P2
2022/01/07 00:02:18;;;;;;;;;;;;;;;;;;5058479;28;19928;-68
2022/01/07 00:04:48;;;;;;;;;;;;;;;;;;5055418;28;19928;-67
2022/01/07 00:07:18;;;;;;;;;;;;;;;;;;5059049;28;19932;-68
2022/01/07 00:09:48;;;;;;;;;;;;;;;;;;5065042;28;20173;-68
2022/01/07 00:12:21;;;;;;;;;;;;;;;;;;5061399;28;19993;-68
2022/01/07 00:14:57;;;;;;;;;;;;;;;;;;5050825;28;19936;-68
2022/01/07 00:17:28;;;;;;;;;;;;;;;;;;5064166;28;19928;-68
2022/01/07 00:19:56;;;;;;;;;;;;;;;;;;5062913;28;20410;-68
2022/01/07 00:22:23;;;;;;;;;;;;;;;;;;5066138;28;19924;-68
2022/01/07 00:24:51;;;;;;;;;;;;;;;;;;5054971;28;20357;-68
2022/01/07 00:27:20;;;;;;;;;;;;;;;;;;5061181;28;19924;-68
2022/01/07 00:29:52;;;;;;;;;;;;;;;;;;5063306;28;19924;-68
2022/01/07 00:32:19;;;;;;;;;;;;;;;;;;5062859;28;19924;-67
2022/01/07 00:34:48;;;;;;;;;;;;;;;;;;5062957;28;19932;-67
2022/01/07 00:37:18;;;;;;;;;;;;;;;;;;5066145;28;19936;-68
2022/01/07 00:39:48;;;;;;;;;;;;;;;;;;5059755;28;19981;-67
2022/01/07 00:42:19;;;;;;;;;;;;;;;;;;5065360;28;19924;-68
2022/01/07 00:44:49;;;;;;;;;;;;;;;;;;5063471;28;19932;-67
2022/01/07 00:47:18;;;;;;;;;;;;;;;;;;5066193;28;20011;-67
2022/01/07 00:49:49;;;;;;;;;;;;;;;;;;5068714;28;19928;-67
2022/01/07 00:52:18;;;;;;;;;;;;;;;;;;5063670;28;19935;-67
2022/01/07 00:54:49;;;;;;;;;;;;;;;;;;5065405;28;19928;-68
2022/01/07 00:57:18;;;;;;;;;;;;;;;;;;5060615;28;19935;-68
2022/01/07 00:59:47;;;;;;;;;;;;;;;;;;5063385;28;20297;-68
2022/01/07 01:02:14;;;;;;;;;;;;;;;;;;5065821;28;19933;-68
2022/01/07 01:04:42;;;;;;;;;;;;;;;;;;5057829;28;19924;-68
2022/01/07 01:07:11;;;;;;;;;;;;;;;;;;5064503;28;19925;-68
2022/01/07 01:09:40;;;;;;;;;;;;;;;;;;5065331;28;19928;-68
2022/01/07 01:12:11;;;;;;;;;;;;;;;;;;5059876;28;20316;-68
2022/01/07 01:14:41;;;;;;;;;;;;;;;;;;5056808;28;19934;-68
2022/01/07 01:17:10;;;;;;;;;;;;;;;;;;5064098;28;20384;-68
2022/01/07 01:19:41;;;;;;;;;;;;;;;;;;5063130;28;19939;-67
2022/01/07 01:22:11;;;;;;;;;;;;;;;;;;5057688;28;19925;-68
2022/01/07 01:24:42;;;;;;;;;;;;;;;;;;5061862;28;19924;-69
2022/01/07 01:27:10;;;;;;;;;;;;;;;;;;5055717;28;19924;-69
2022/01/07 01:29:38;;;;;;;;;;;;;;;;;;5065904;28;19924;-68
2022/01/07 01:32:07;;;;;;;;;;;;;;;;;;5056138;28;19932;-68
2022/01/07 01:34:34;;;;;;;;;;;;;;;;;;5064148;28;19990;-68
2022/01/07 01:37:02;;;;;;;;;;;;;;;;;;5064360;28;19934;-67
2022/01/07 01:39:32;;;;;;;;;;;;;;;;;;5061159;28;19936;-67
2022/01/07 01:42:03;;;;;;;;;;;;;;;;;;5059166;28;19932;-67
2022/01/07 01:44:33;;;;;;;;;;;;;;;;;;5061234;28;19936;-67
2022/01/07 01:47:02;;;;;;;;;;;;;;;;;;5062747;28;20312;-67
2022/01/07 01:49:32;;;;;;;;;;;;;;;;;;5062402;28;19962;-68
2022/01/07 01:52:00;;;;;;;;;;;;;;;;;;5056728;28;19925;-67
2022/01/07 01:54:28;;;;;;;;;;;;;;;;;;5063368;28;19933;-68
2022/01/07 01:56:55;;;;;;;;;;;;;;;;;;5058852;28;19974;-68
2022/01/07 01:59:26;;;;;;;;;;;;;;;;;;5062381;28;19928;-68
2022/01/07 02:01:53;;;;;;;;;;;;;;;;;;5063745;28;19928;-69
2022/01/07 02:04:24;;;;;;;;;;;;;;;;;;5058547;28;19932;-68
2022/01/07 02:06:53;;;;;;;;;;;;;;;;;;5059735;28;19924;-68
2022/01/07 02:09:34;;;;;;;;;;;;;;;;;;5059873;28;19924;-68
2022/01/07 02:12:13;;;;;;;;;;;;;;;;;;5057341;28;19935;-68
2022/01/07 02:14:40;;;;;;;;;;;;;;;;;;5055053;28;19944;-67
2022/01/07 02:17:11;;;;;;;;;;;;;;;;;;5063408;28;19932;-67
2022/01/07 02:19:42;;;;;;;;;;;;;;;;;;5062868;28;19925;-68
2022/01/07 02:22:13;;;;;;;;;;;;;;;;;;5063189;28;19925;-67
2022/01/07 02:24:40;;;;;;;;;;;;;;;;;;5061635;28;19924;-67
2022/01/07 02:27:09;;;;;;;;;;;;;;;;;;5062656;28;19981;-67
2022/01/07 02:29:38;;;;;;;;;;;;;;;;;;5059728;28;19925;-68
2022/01/07 02:32:07;;;;;;;;;;;;;;;;;;5061511;28;19928;-67
2022/01/07 02:34:36;;;;;;;;;;;;;;;;;;5058833;28;20408;-67
2022/01/07 02:37:04;;;;;;;;;;;;;;;;;;5060911;28;19947;-67
2022/01/07 02:39:35;;;;;;;;;;;;;;;;;;5059643;28;19935;-67
2022/01/07 02:42:02;;;;;;;;;;;;;;;;;;5063430;28;20532;-68
2022/01/07 02:44:30;;;;;;;;;;;;;;;;;;5059640;28;19940;-69
2022/01/07 02:46:59;;;;;;;;;;;;;;;;;;5059722;28;19925;-69
2022/01/07 02:49:29;;;;;;;;;;;;;;;;;;5063761;28;19931;-67
2022/01/07 02:51:59;;;;;;;;;;;;;;;;;;5061650;28;19997;-68
2022/01/07 02:54:26;;;;;;;;;;;;;;;;;;5065478;28;19924;-68
2022/01/07 02:56:55;;;;;;;;;;;;;;;;;;5062044;28;20401;-67
2022/01/07 02:59:25;;;;;;;;;;;;;;;;;;5064109;28;19929;-68
2022/01/07 03:01:54;;;;;;;;;;;;;;;;;;5063457;28;19931;-68
2022/01/07 03:04:26;;;;;;;;;;;;;;;;;;5063453;28;19931;-68
2022/01/07 03:06:57;;;;;;;;;;;;;;;;;;5057547;28;19932;-68
2022/01/07 03:09:39;;;;;;;;;;;;;;;;;;5066124;28;19971;-68
2022/01/07 03:12:06;;;;;;;;;;;;;;;;;;5064645;28;19937;-67
2022/01/07 03:14:35;;;;;;;;;;;;;;;;;;5065102;28;19933;-68
2022/01/07 03:17:02;;;;;;;;;;;;;;;;;;5056403;28;19993;-67
2022/01/07 03:19:31;;;;;;;;;;;;;;;;;;5061611;28;19932;-67
2022/01/07 03:22:00;;;;;;;;;;;;;;;;;;5060472;28;19924;-68
2022/01/07 03:24:30;;;;;;;;;;;;;;;;;;5066330;28;19956;-68
2022/01/07 03:26:59;;;;;;;;;;;;;;;;;;5057407;28;20075;-66
2022/01/07 03:29:28;;;;;;;;;;;;;;;;;;5064516;28;19924;-68
2022/01/07 03:31:57;;;;;;;;;;;;;;;;;;5062441;28;19939;-68
2022/01/07 03:34:27;;;;;;;;;;;;;;;;;;5064087;28;19928;-68
2022/01/07 03:36:55;;;;;;;;;;;;;;;;;;5057837;28;19932;-68
2022/01/07 03:39:25;;;;;;;;;;;;;;;;;;5061357;28;20340;-67
2022/01/07 03:41:55;;;;;;;;;;;;;;;;;;5057182;28;19924;-68
2022/01/07 03:44:23;;;;;;;;;;;;;;;;;;5045641;28;20292;-68
2022/01/07 03:46:55;;;;;;;;;;;;;;;;;;5057877;28;19955;-68
2022/01/07 03:49:24;;;;;;;;;;;;;;;;;;5065025;28;20338;-68
2022/01/07 03:51:52;;;;;;;;;;;;;;;;;;5052961;28;19932;-68
2022/01/07 03:54:20;;;;;;;;;;;;;;;;;;5060126;28;19924;-67
2022/01/07 03:56:53;;;;;;;;;;;;;;;;;;5056470;28;19939;-67
2022/01/07 03:59:23;;;;;;;;;;;;;;;;;;5062622;28;19958;-68
2022/01/07 04:01:51;;;;;;;;;;;;;;;;;;5063812;28;20477;-68
2022/01/07 04:04:25;;;;;;;;;;;;;;;;;;5060819;28;19936;-68
2022/01/07 04:06:54;;;;;;;;;;;;;;;;;;5056977;28;19998;-67
2022/01/07 04:09:23;;;;;;;;;;;;;;;;;;5064035;28;19947;-67
2022/01/07 04:11:51;;;;;;;;;;;;;;;;;;5064369;28;19939;-68
2022/01/07 04:14:24;;;;;;;;;;;;;;;;;;5064259;28;20007;-68
2022/01/07 04:16:52;;;;;;;;;;;;;;;;;;5059774;28;20558;-68
2022/01/07 04:19:23;;;;;;;;;;;;;;;;;;5065368;28;20323;-68
2022/01/07 04:21:51;;;;;;;;;;;;;;;;;;5065236;28;19924;-68
2022/01/07 04:24:19;;;;;;;;;;;;;;;;;;5047533;28;19924;-68
2022/01/07 04:26:48;;;;;;;;;;;;;;;;;;5049747;28;19935;-69
2022/01/07 04:29:15;;;;;;;;;;;;;;;;;;5054241;28;19932;-68
2022/01/07 04:31:43;;;;;;;;;;;;;;;;;;5067732;28;19925;-68
2022/01/07 04:34:11;;;;;;;;;;;;;;;;;;5066549;28;19932;-68
2022/01/07 04:36:39;;;;;;;;;;;;;;;;;;5057377;28;19929;-68
2022/01/07 04:39:06;;;;;;;;;;;;;;;;;;5061237;28;20574;-68
2022/01/07 04:41:34;;;;;;;;;;;;;;;;;;5058021;28;19924;-68
2022/01/07 04:44:03;;;;;;;;;;;;;;;;;;5062665;28;19925;-68
2022/01/07 04:46:30;;;;;;;;;;;;;;;;;;5066053;28;20330;-68
2022/01/07 04:48:58;;;;;;;;;;;;;;;;;;5060942;28;20282;-68
2022/01/07 04:51:26;;;;;;;;;;;;;;;;;;5064397;28;19931;-68
2022/01/07 04:53:55;;;;;;;;;;;;;;;;;;5061334;28;19950;-68
2022/01/07 04:56:24;;;;;;;;;;;;;;;;;;5068513;28;19925;-68
2022/01/07 04:58:52;;;;;;;;;;;;;;;;;;5058251;28;19929;-68
2022/01/07 05:01:19;;;;;;;;;;;;;;;;;;5061238;28;19925;-69
2022/01/07 05:03:46;;;;;;;;;;;;;;;;;;5059262;28;20361;-69
2022/01/07 05:09:04;;;;;;;;;;;;;;;;;;5057816;28;19933;-67
2022/01/07 05:11:33;;;;;;;;;;;;;;;;;;5062792;28;19978;-68
2022/01/07 05:14:03;;;;;;;;;;;;;;;;;;5064292;28;19932;-68
2022/01/07 05:16:34;;;;;;;;;;;;;;;;;;5051619;28;20593;-68
2022/01/07 05:19:03;;;;;;;;;;;;;;;;;;5056707;28;20160;-67
2022/01/07 05:21:32;;;;;;;;;;;;;;;;;;5065230;28;19925;-68
2022/01/07 05:24:03;;;;;;;;;;;;;;;;;;5064504;28;19966;-68
2022/01/07 05:26:32;;;;;;;;;;;;;;;;;;5063457;28;19940;-68
2022/01/07 05:29:03;;;;;;;;;;;;;;;;;;5060394;28;19932;-68
2022/01/07 05:31:30;;;;;;;;;;;;;;;;;;5064532;28;19989;-68
2022/01/07 05:34:00;;;;;;;;;;;;;;;;;;5063526;28;19928;-68
2022/01/07 05:36:28;;;;;;;;;;;;;;;;;;5063859;28;19933;-68
2022/01/07 05:38:59;;;;;;;;;;;;;;;;;;5059680;28;19935;-67
2022/01/07 05:41:26;;;;;;;;;;;;;;;;;;5053719;28;20404;-68
2022/01/07 05:43:55;;;;;;;;;;;;;;;;;;5067132;28;20002;-68
2022/01/07 05:46:26;;;;;;;;;;;;;;;;;;5040079;28;19924;-68
2022/01/07 05:48:54;;;;;;;;;;;;;;;;;;5054867;28;19955;-68
2022/01/07 05:51:21;;;;;;;;;;;;;;;;;;5048509;28;20416;-68
2022/01/07 05:53:49;;;;;;;;;;;;;;;;;;5061871;28;19949;-68
2022/01/07 05:56:19;;;;;;;;;;;;;;;;;;5055485;28;19928;-68
2022/01/07 05:58:47;;;;;;;;;;;;;;;;;;5061334;28;19924;-67
2022/01/07 06:01:14;;;;;;;;;;;;;;;;;;5063351;28;19932;-68
2022/01/07 06:03:42;;;;;;;;;;;;;;;;;;5053499;28;19925;-67
2022/01/07 06:06:12;;;;;;;;;;;;;;;;;;5049252;28;19933;-68
2022/01/07 06:08:44;;;;;;;;;;;;;;;;;;5042029;28;19933;-67
2022/01/07 06:11:15;;;;;;;;;;;;;;;;;;5057039;28;19925;-68
2022/01/07 06:13:43;;;;;;;;;;;;;;;;;;5063575;28;19993;-68
2022/01/07 06:16:13;;;;;;;;;;;;;;;;;;5047806;28;19944;-68
2022/01/07 06:18:56;;;;;;;;;;;;;;;;;;5062502;28;19954;-68
2022/01/07 06:21:26;;;;;;;;;;;;;;;;;;5061396;28;20040;-68
2022/01/07 06:23:57;;;;;;;;;;;;;;;;;;5065057;28;19933;-67
2022/01/07 06:26:27;;;;;;;;;;;;;;;;;;5063938;28;19925;-69
2022/01/07 06:28:54;;;;;;;;;;;;;;;;;;5056731;28;19926;-68
2022/01/07 06:31:21;;;;;;;;;;;;;;;;;;5063743;28;20330;-69
2022/01/07 06:33:50;;;;;;;;;;;;;;;;;;5065530;28;19932;-68
2022/01/07 06:36:17;;;;;;;;;;;;;;;;;;5056692;28;19924;-68
2022/01/07 06:38:47;;;;;;;;;;;;;;;;;;5035491;28;19978;-68
2022/01/07 06:41:15;;;;;;;;;;;;;;;;;;5025857;28;20011;-68
2022/01/07 06:43:43;;;;;;;;;;;;;;;;;;5039976;28;19925;-68
2022/01/07 06:46:13;;;;;;;;;;;;;;;;;;5046361;28;19932;-68
2022/01/07 06:48:48;;;;;;;;;;;;;;;;;;5030100;28;19929;-67
2022/01/07 06:51:18;;;;;;;;;;;;;;;;;;5037114;28;19925;-67
2022/01/07 06:53:52;;;;;;;;;;;;;;;;;;5031438;28;19969;-68
2022/01/07 06:56:20;;;;;;;;;;;;;;;;;;5036341;28;19939;-68
2022/01/07 06:58:47;;;;;;;;;;;;;;;;;;5039439;28;19931;-68
2022/01/07 07:01:14;;;;;;;;;;;;;;;;;;5039712;28;20039;-67
2022/01/07 07:03:42;;;;;;;;;;;;;;;;;;5027133;28;19924;-67
2022/01/07 07:06:12;;;;;;;;;;;;;;;;;;5043442;28;19925;-68
2022/01/07 07:08:42;;;;;;;;;;;;;;;;;;5038907;28;19978;-69
2022/01/07 07:11:11;;;;;;;;;;;;;;;;;;5039513;28;19929;-68
2022/01/07 07:13:40;;;;;;;;;;;;;;;;;;5029394;28;20379;-68
2022/01/07 07:16:08;;;;;;;;;;;;;;;;;;5045905;28;19925;-68
2022/01/07 07:18:37;;;;;;;;;;;;;;;;;;5036276;28;19931;-68
2022/01/07 07:21:05;;;;;;;;;;;;;;;;;;5040648;28;19933;-68
2022/01/07 07:23:36;;;;;;;;;;;;;;;;;;5036936;28;19937;-68
2022/01/07 07:26:05;;;;;;;;;;;;;;;;;;5042820;28;19925;-68
2022/01/07 07:28:35;;;;;;;;;;;;;;;;;;5037215;28;19932;-68
2022/01/07 07:31:05;;;;;;;;;;;;;;;;;;5044470;28;20291;-68
2022/01/07 07:39:01;;;;;;;;;;;;;;;;;;5057475;28;20347;-68
2022/01/07 07:41:35;;;;;;;;;;;;;;;;;;5063630;28;19932;-70
2022/01/07 07:44:05;;;;;;;;;;;;;;;;;;5054706;28;19925;-70
2022/01/07 07:46:36;;;;;;;;;;;;;;;;;;5061436;28;19993;-69
2022/01/07 07:49:11;;;;;;;;;;;;;;;;;;5060235;28;19928;-70
2022/01/07 07:51:43;;;;;;;;;;;;;;;;;;5063319;28;20421;-68
2022/01/07 07:54:14;;;;;;;;;;;;;;;;;;5059292;28;19925;-69
2022/01/07 07:56:45;;;;;;;;;;;;;;;;;;5061352;28;19928;-69
2022/01/07 07:59:19;;;;;;;;;;;;;;;;;;5056482;28;19929;-68
2022/01/07 08:01:47;;;;;;;;;;;;;;;;;;5063246;28;20443;-68
2022/01/07 08:04:21;;;;;;;;;;;;;;;;;;5061288;28;20516;-69
2022/01/07 08:06:53;;;;;;;;;;;;;;;;;;5061327;28;19937;-68
2022/01/07 08:09:24;;;;;;;;;;;;;;;;;;5066568;28;19932;-70
2022/01/07 08:12:04;;;;;;;;;;;;;;;;;;5060164;28;20361;-67
2022/01/07 08:17:24;;;;;;;;;;;;;;;;;;5066317;28;19928;-66
2022/01/07 08:19:55;;;;;;;;;;;;;;;;;;5058343;28;19928;-67
2022/01/07 08:22:25;;;;;;;;;;;;;;;;;;5061469;28;19932;-69
2022/01/07 08:24:54;;;;;;;;;;;;;;;;;;5056328;28;19929;-68
2022/01/07 08:27:26;;;;;;;;;;;;;;;;;;5059479;28;20033;-68
2022/01/07 08:30:11;;;;;;;;;;;;;;;;;;5059122;28;19925;-69
2022/01/07 08:35:28;;;;;;;;;;;;;;;;;;5052149;28;20514;-68
2022/01/07 08:38:07;;;;;;;;;;;;;;;;;;5060777;28;19925;-68
2022/01/07 08:40:38;;;;;;;;;;;;;;;;;;5051368;28;19933;-68
2022/01/07 08:43:08;;;;;;;;;;;;;;;;;;5065780;28;19988;-69
2022/01/07 08:45:40;;;;;;;;;;;;;;;;;;5066698;28;19924;-67
2022/01/07 08:48:11;;;;;;;;;;;;;;;;;;5063389;28;20373;-67
2022/01/07 08:50:44;;;;;;;;;;;;;;;;;;5057287;28;19932;-68
2022/01/07 08:53:23;;;;;;;;;;;;;;;;;;5061742;28;19955;-68
2022/01/07 08:55:51;;;;;;;;;;;;;;;;;;5062595;28;19939;-68
2022/01/07 08:58:21;;;;;;;;;;;;;;;;;;5064854;28;20011;-68
2022/01/07 09:00:48;;;;;;;;;;;;;;;;;;5059784;28;19925;-68
2022/01/07 09:03:22;;;;;;;;;;;;;;;;;;5062901;28;19925;-67
2022/01/07 09:05:51;;;;;;;;;;;;;;;;;;5064424;28;19929;-67
2022/01/07 09:08:19;;;;;;;;;;;;;;;;;;5062521;28;19924;-67
2022/01/07 09:10:50;;;;;;;;;;;;;;;;;;5057305;28;20473;-67
2022/01/07 09:13:22;;;;;;;;;;;;;;;;;;5056719;28;19974;-67
2022/01/07 09:15:56;;;;;;;;;;;;;;;;;;5058374;28;20015;-71
2022/01/07 09:18:40;;;;;;;;;;;;;;;;;;5061853;28;19967;-71
2022/01/07 09:21:10;;;;;;;;;;;;;;;;;;5048792;28;19952;-70
2022/01/07 09:23:41;;;;;;;;;;;;;;;;;;5059156;28;20469;-69
2022/01/07 09:26:12;;;;;;;;;;;;;;;;;;5059778;28;19934;-71
2022/01/07 09:28:43;;;;;;;;;;;;;;;;;;5056759;28;19924;-68
2022/01/07 09:31:13;;;;;;;;;;;;;;;;;;5062429;28;19940;-67
2022/01/07 09:33:43;;;;;;;;;;;;;;;;;;5055872;28;19928;-66
2022/01/07 09:36:30;;;;;;;;;;;;;;;;;;5056159;28;19944;-71
2022/01/07 09:38:59;;;;;;;;;;;;;;;;;;5052606;28;19931;-72
2022/01/07 09:41:29;;;;;;;;;;;;;;;;;;5058817;28;19941;-70
2022/01/07 09:43:58;;;;;;;;;;;;;;;;;;5063344;28;20400;-72
2022/01/07 09:46:31;;;;;;;;;;;;;;;;;;5060692;28;19928;-72
2022/01/07 09:49:04;;;;;;;;;;;;;;;;;;5054223;28;19925;-71
2022/01/07 09:51:36;;;;;;;;;;;;;;;;;;5052308;28;19954;-72
2022/01/07 09:54:05;;;;;;;;;;;;;;;;;;5061699;28;19943;-70
2022/01/07 09:56:33;;;;;;;;;;;;;;;;;;5063984;28;19936;-70
2022/01/07 09:59:07;;;;;;;;;;;;;;;;;;5060994;28;19924;-72
2022/01/07 10:01:38;;;;;;;;;;;;;;;;;;5062512;28;19928;-68
2022/01/07 10:04:21;;;;;;;;;;;;;;;;;;5059123;28;19987;-67
2022/01/07 10:06:50;;;;;;;;;;;;;;;;;;5056553;28;20291;-69
2022/01/07 10:09:29;;;;;;;;;;;;;;;;;;5057246;28;19944;-69
2022/01/07 10:11:59;;;;;;;;;;;;;;;;;;5035558;28;19924;-71
2022/01/07 10:14:30;;;;;;;;;;;;;;;;;;5064667;28;20278;-72
2022/01/07 10:17:01;;;;;;;;;;;;;;;;;;5056129;28;19924;-70
2022/01/07 10:19:34;;;;;;;;;;;;;;;;;;5061688;28;20105;-69
2022/01/07 10:22:17;;;;;;;;;;;;;;;;;;5058905;28;19959;-70
2022/01/07 10:24:48;;;;;;;;;;;;;;;;;;5037633;28;20414;-70
2022/01/07 10:27:15;;;;;;;;;;;;;;;;;;5058542;28;19928;-70
2022/01/07 10:29:49;;;;;;;;;;;;;;;;;;5062565;28;19935;-75
2022/01/07 10:32:21;;;;;;;;;;;;;;;;;;5064753;28;19954;-71
2022/01/07 10:34:52;;;;;;;;;;;;;;;;;;5060148;28;19936;-71
2022/01/07 10:37:19;;;;;;;;;;;;;;;;;;5065620;28;19939;-72
2022/01/07 10:39:50;;;;;;;;;;;;;;;;;;5060677;28;19925;-75
2022/01/07 10:42:22;;;;;;;;;;;;;;;;;;5064094;28;20486;-75
2022/01/07 10:44:51;;;;;;;;;;;;;;;;;;5056085;28;19932;-71
2022/01/07 10:47:20;;;;;;;;;;;;;;;;;;5064450;28;19929;-71
2022/01/07 10:49:50;;;;;;;;;;;;;;;;;;5065669;28;19966;-70
2022/01/07 10:52:33;;;;;;;;;;;;;;;;;;5062561;28;19974;-72
2022/01/07 10:55:03;;;;;;;;;;;;;;;;;;5060015;28;20093;-72
2022/01/07 10:57:36;;;;;;;;;;;;;;;;;;5060636;28;19933;-72
2022/01/07 11:00:07;;;;;;;;;;;;;;;;;;5066417;28;19932;-73
2022/01/07 11:02:39;;;;;;;;;;;;;;;;;;5060614;28;20361;-73
2022/01/07 11:05:09;;;;;;;;;;;;;;;;;;5065035;28;19924;-73
2022/01/07 11:07:42;;;;;;;;;;;;;;;;;;5059279;28;19941;-74
2022/01/07 11:10:09;;;;;;;;;;;;;;;;;;5063253;28;19925;-69
2022/01/07 11:12:40;;;;;;;;;;;;;;;;;;5062382;28;20313;-72
2022/01/07 11:15:17;;;;;;;;;;;;;;;;;;5057527;28;21241;-74
2022/01/07 11:17:47;;;;;;;;;;;;;;;;;;5065935;28;20009;-71
2022/01/07 11:20:24;;;;;;;;;;;;;;;;;;5064367;28;19925;-72
2022/01/07 11:22:59;;;;;;;;;;;;;;;;;;5047336;28;20289;-73
2022/01/07 11:25:47;;;;;;;;;;;;;;;;;;5058252;28;19929;-72
2022/01/07 11:28:20;;;;;;;;;;;;;;;;;;5067581;28;19928;-75
2022/01/07 11:30:50;;;;;;;;;;;;;;;;;;5059447;28;19932;-74
2022/01/07 11:33:21;;;;;;;;;;;;;;;;;;5065144;28;20346;-70
2022/01/07 11:35:51;;;;;;;;;;;;;;;;;;5064604;28;20449;-69
2022/01/07 11:38:24;;;;;;;;;;;;;;;;;;5062434;28;20318;-70
2022/01/07 11:40:54;;;;;;;;;;;;;;;;;;5061013;28;20467;-72
2022/01/07 11:43:31;;;;;;;;;;;;;;;;;;5057873;28;19976;-68
2022/01/07 11:46:06;;;;;;;;;;;;;;;;;;5066008;28;19978;-68
2022/01/07 11:48:38;;;;;;;;;;;;;;;;;;5064760;28;20018;-68
2022/01/07 11:51:05;;;;;;;;;;;;;;;;;;5056566;28;19939;-66
2022/01/07 11:53:35;;;;;;;;;;;;;;;;;;5065367;28;19932;-67
2022/01/07 11:56:04;;;;;;;;;;;;;;;;;;5067237;28;19932;-66
2022/01/07 11:58:31;;;;;;;;;;;;;;;;;;5068071;28;19928;-67
2022/01/07 12:01:05;;;;;;;;;;;;;;;;;;5066193;28;20294;-66
2022/01/07 12:03:43;;;;;;;;;;;;;;;;;;5063899;28;19924;-66
2022/01/07 12:06:12;;;;;;;;;;;;;;;;;;5062519;28;19939;-66
2022/01/07 12:08:43;;;;;;;;;;;;;;;;;;5058787;28;19971;-66
2022/01/07 12:11:12;;;;;;;;;;;;;;;;;;5062555;28;19928;-67
2022/01/07 12:13:44;;;;;;;;;;;;;;;;;;5060478;28;20615;-68
2022/01/07 12:16:13;;;;;;;;;;;;;;;;;;5058367;28;19950;-70
2022/01/07 12:18:48;;;;;;;;;;;;;;;;;;5057782;28;20480;-70
2022/01/07 12:21:19;;;;;;;;;;;;;;;;;;5062598;28;20080;-70
2022/01/07 12:23:49;;;;;;;;;;;;;;;;;;5064605;28;19936;-68
2022/01/07 12:26:19;;;;;;;;;;;;;;;;;;5061593;28;19924;-72
2022/01/07 12:28:51;;;;;;;;;;;;;;;;;;5053723;28;20012;-71
2022/01/07 12:31:20;;;;;;;;;;;;;;;;;;5058910;28;19928;-73
2022/01/07 12:33:49;;;;;;;;;;;;;;;;;;5061800;28;20086;-72
2022/01/07 12:36:23;;;;;;;;;;;;;;;;;;5053511;28;19956;-72
2022/01/07 12:38:50;;;;;;;;;;;;;;;;;;5038486;28;20783;-71
2022/01/07 12:41:21;;;;;;;;;;;;;;;;;;5038926;28;19963;-73
2022/01/07 12:43:54;;;;;;;;;;;;;;;;;;5039561;28;19933;-74
2022/01/07 12:46:24;;;;;;;;;;;;;;;;;;5045367;28;19936;-72
2022/01/07 12:48:55;;;;;;;;;;;;;;;;;;5030346;28;19929;-72
2022/01/07 12:51:26;;;;;;;;;;;;;;;;;;5042520;28;19940;-69
2022/01/07 12:53:57;;;;;;;;;;;;;;;;;;5044240;28;19925;-69
2022/01/07 12:56:25;;;;;;;;;;;;;;;;;;5040233;28;19925;-73
2022/01/07 12:58:58;;;;;;;;;;;;;;;;;;5043613;28;19925;-71
2022/01/07 13:01:28;;;;;;;;;;;;;;;;;;5038869;28;19971;-70
2022/01/07 13:03:58;;;;;;;;;;;;;;;;;;5033747;28;19990;-71
2022/01/07 13:06:25;;;;;;;;;;;;;;;;;;5037941;28;19933;-72
2022/01/07 13:09:02;;;;;;;;;;;;;;;;;;5039346;28;19963;-74
2022/01/07 13:11:32;;;;;;;;;;;;;;;;;;5042404;28;19925;-69
2022/01/07 13:14:00;;;;;;;;;;;;;;;;;;5044291;28;20372;-73
2022/01/07 13:16:31;;;;;;;;;;;;;;;;;;5040381;28;20499;-75
2022/01/07 13:19:05;;;;;;;;;;;;;;;;;;5036571;28;20667;-75
2022/01/07 13:21:33;;;;;;;;;;;;;;;;;;5038949;28;19967;-71
2022/01/07 13:24:03;;;;;;;;;;;;;;;;;;5040246;28;19929;-72
2022/01/07 13:26:33;;;;;;;;;;;;;;;;;;5042143;28;19924;-72
2022/01/07 13:29:01;;;;;;;;;;;;;;;;;;5036564;28;19940;-72
2022/01/07 13:31:34;;;;;;;;;;;;;;;;;;5042291;28;20391;-73
2022/01/07 13:34:03;;;;;;;;;;;;;;;;;;5038914;28;19941;-74
2022/01/07 13:36:33;;;;;;;;;;;;;;;;;;5053912;28;19928;-72
2022/01/07 13:39:02;;;;;;;;;;;;;;;;;;5056294;28;19943;-71
2022/01/07 13:41:35;;;;;;;;;;;;;;;;;;5054742;28;20023;-73
2022/01/07 13:44:04;;;;;;;;;;;;;;;;;;5045172;28;19932;-72
2022/01/07 13:46:35;;;;;;;;;;;;;;;;;;5056738;28;19932;-73
2022/01/07 13:49:11;;;;;;;;;;;;;;;;;;5060383;28;20019;-72
2022/01/07 13:51:39;;;;;;;;;;;;;;;;;;5058160;28;19932;-72
2022/01/07 13:54:09;;;;;;;;;;;;;;;;;;5057262;28;19932;-71
2022/01/07 13:56:38;;;;;;;;;;;;;;;;;;5061534;28;19940;-70
2022/01/07 13:59:10;;;;;;;;;;;;;;;;;;5056904;28;19940;-69
2022/01/07 14:01:40;;;;;;;;;;;;;;;;;;5059944;28;20092;-70
2022/01/07 14:04:10;;;;;;;;;;;;;;;;;;5050152;28;20695;-71
2022/01/07 14:06:58;;;;;;;;;;;;;;;;;;5056824;28;19924;-71
2022/01/07 14:09:29;;;;;;;;;;;;;;;;;;5056888;28;19933;-70
2022/01/07 14:11:58;;;;;;;;;;;;;;;;;;5056729;28;19925;-70
2022/01/07 14:14:29;;;;;;;;;;;;;;;;;;5054868;28;19928;-71
2022/01/07 14:17:11;;;;;;;;;;;;;;;;;;5054870;28;19924;-70
2022/01/07 14:19:42;;;;;;;;;;;;;;;;;;5052474;28;19932;-72
2022/01/07 14:22:09;;;;;;;;;;;;;;;;;;5056567;28;19933;-71
2022/01/07 14:24:38;;;;;;;;;;;;;;;;;;5057032;28;19989;-71
2022/01/07 14:27:07;;;;;;;;;;;;;;;;;;5036836;28;19929;-71
2022/01/07 14:29:39;;;;;;;;;;;;;;;;;;5057000;28;19925;-69
2022/01/07 14:32:08;;;;;;;;;;;;;;;;;;5070822;28;20383;-69
2022/01/07 14:34:37;;;;;;;;;;;;;;;;;;5059286;28;20257;-69
2022/01/07 14:37:11;;;;;;;;;;;;;;;;;;5054155;28;20407;-68
2022/01/07 14:39:44;;;;;;;;;;;;;;;;;;5052267;28;19928;-68
2022/01/07 14:42:15;;;;;;;;;;;;;;;;;;5050933;28;19937;-71
2022/01/07 14:44:42;;;;;;;;;;;;;;;;;;5060197;28;20253;-71
2022/01/07 14:47:12;;;;;;;;;;;;;;;;;;5042893;28;19925;-70
2022/01/07 14:49:40;;;;;;;;;;;;;;;;;;5044564;28;19933;-66
2022/01/07 14:52:07;;;;;;;;;;;;;;;;;;5056664;28;19936;-66
2022/01/07 14:54:35;;;;;;;;;;;;;;;;;;5059623;28;20266;-72
2022/01/07 14:57:03;;;;;;;;;;;;;;;;;;5052117;28;19929;-73
2022/01/07 14:59:35;;;;;;;;;;;;;;;;;;5046234;28;20542;-71
2022/01/07 15:02:06;;;;;;;;;;;;;;;;;;5060874;28;20288;-72
2022/01/07 15:04:37;;;;;;;;;;;;;;;;;;5057496;28;19932;-73
2022/01/07 15:07:10;;;;;;;;;;;;;;;;;;5062673;28;19928;-72
2022/01/07 15:09:41;;;;;;;;;;;;;;;;;;5058391;28;19928;-73
2022/01/07 15:12:17;;;;;;;;;;;;;;;;;;5053105;28;20405;-71
2022/01/07 15:14:47;;;;;;;;;;;;;;;;;;5051191;28;19925;-72
2022/01/07 15:17:18;;;;;;;;;;;;;;;;;;5050004;28;20476;-73
2022/01/07 15:19:52;;;;;;;;;;;;;;;;;;5057073;28;19939;-70
2022/01/07 15:22:23;;;;;;;;;;;;;;;;;;5053144;28;19929;-71
2022/01/07 15:24:53;;;;;;;;;;;;;;;;;;5053320;28;19929;-71
2022/01/07 15:27:27;;;;;;;;;;;;;;;;;;5037669;28;19924;-66
2022/01/07 15:29:58;;;;;;;;;;;;;;;;;;5058802;28;19928;-68
2022/01/07 15:32:27;;;;;;;;;;;;;;;;;;5053829;28;19932;-69
2022/01/07 15:34:54;;;;;;;;;;;;;;;;;;5056466;28;19970;-69
2022/01/07 15:37:23;;;;;;;;;;;;;;;;;;5051387;28;19925;-69
2022/01/07 15:39:54;;;;;;;;;;;;;;;;;;5050023;28;19936;-69
2022/01/07 15:42:29;;;;;;;;;;;;;;;;;;5056515;28;19933;-71
2022/01/07 15:45:06;;;;;;;;;;;;;;;;;;5053983;28;20537;-71
2022/01/07 15:47:55;;;;;;;;;;;;;;;;;;5057338;28;19924;-70
2022/01/07 15:50:25;;;;;;;;;;;;;;;;;;5042661;28;19929;-69
2022/01/07 15:53:15;;;;;;;;;;;;;;;;;;5041702;28;20045;-68
2022/01/07 15:55:52;;;;;;;;;;;;;;;;;;5060927;28;19950;-69
2022/01/07 15:58:31;;;;;;;;;;;;;;;;;;5054662;28;19935;-69
2022/01/07 16:01:08;;;;;;;;;;;;;;;;;;5056005;28;19925;-69
2022/01/07 16:03:36;;;;;;;;;;;;;;;;;;5062938;28;19931;-72
2022/01/07 16:06:09;;;;;;;;;;;;;;;;;;5057856;28;20535;-69
2022/01/07 16:08:44;;;;;;;;;;;;;;;;;;5061360;28;19925;-69
2022/01/07 16:11:19;;;;;;;;;;;;;;;;;;5057067;28;19999;-70
2022/01/07 16:13:47;;;;;;;;;;;;;;;;;;5057286;28;19932;-69
2022/01/07 16:16:17;;;;;;;;;;;;;;;;;;5057575;28;20329;-69
2022/01/07 16:18:50;;;;;;;;;;;;;;;;;;5061641;28;19932;-69
2022/01/07 16:21:36;;;;;;;;;;;;;;;;;;5060819;28;19936;-69
2022/01/07 16:24:05;;;;;;;;;;;;;;;;;;5059696;28;19929;-75
2022/01/07 16:26:32;;;;;;;;;;;;;;;;;;5046696;28;19931;-69
2022/01/07 16:29:00;;;;;;;;;;;;;;;;;;5050473;28;19936;-75
2022/01/07 16:31:28;;;;;;;;;;;;;;;;;;5058276;28;20015;-73
2022/01/07 16:33:59;;;;;;;;;;;;;;;;;;5060435;28;19931;-74
2022/01/07 16:36:29;;;;;;;;;;;;;;;;;;5048677;28;19933;-73
2022/01/07 16:38:59;;;;;;;;;;;;;;;;;;5036559;28;19985;-71
2022/01/07 16:41:30;;;;;;;;;;;;;;;;;;5037534;28;19967;-76
2022/01/07 16:44:01;;;;;;;;;;;;;;;;;;5039186;28;19958;-73
2022/01/07 16:46:35;;;;;;;;;;;;;;;;;;5046462;28;20023;-73
2022/01/07 16:49:05;;;;;;;;;;;;;;;;;;5037807;28;20356;-72
2022/01/07 16:51:55;;;;;;;;;;;;;;;;;;5029482;28;19940;-72
2022/01/07 16:54:26;;;;;;;;;;;;;;;;;;5041298;28;19925;-72
2022/01/07 16:57:00;;;;;;;;;;;;;;;;;;5039775;28;19933;-70
2022/01/07 16:59:31;;;;;;;;;;;;;;;;;;5037565;28;19983;-68
2022/01/07 17:02:01;;;;;;;;;;;;;;;;;;5043604;28;20333;-67
2022/01/07 17:04:32;;;;;;;;;;;;;;;;;;5040451;28;19925;-68
2022/01/07 17:07:02;;;;;;;;;;;;;;;;;;5039450;28;19925;-69
2022/01/07 17:09:34;;;;;;;;;;;;;;;;;;5042893;28;19936;-68
2022/01/07 17:12:14;;;;;;;;;;;;;;;;;;5038801;28;20224;-68
2022/01/07 17:14:44;;;;;;;;;;;;;;;;;;5036039;28;20338;-68
2022/01/07 17:17:14;;;;;;;;;;;;;;;;;;5039755;28;19925;-68
2022/01/07 17:19:50;;;;;;;;;;;;;;;;;;5042370;28;20019;-68
2022/01/07 17:22:20;;;;;;;;;;;;;;;;;;5042021;28;19925;-68
2022/01/07 17:24:48;;;;;;;;;;;;;;;;;;5035747;28;19936;-68